createdAt,value
2023-02-12T00:00:21.283Z,94.76
2023-02-12T00:02:38.044Z,94.64
2023-02-12T00:04:54.724Z,94.15
2023-02-12T00:07:11.422Z,95.52
2023-02-12T00:09:27.915Z,95.62
2023-02-12T00:11:44.320Z,95.64
2023-02-12T00:14:02.853Z,94.98
2023-02-12T00:16:19.565Z,94.80
2023-02-12T00:18:35.944Z,95.56
2023-02-12T00:20:52.351Z,95.57
2023-02-12T00:23:08.808Z,94.47
2023-02-12T00:25:25.295Z,94.35
2023-02-12T00:27:41.628Z,94.81
2023-02-12T00:29:58.367Z,95.28
2023-02-12T00:32:15.179Z,94.62
2023-02-12T00:34:31.874Z,95.12
2023-02-12T00:36:48.558Z,94.73
2023-02-12T00:39:05.029Z,94.32
2023-02-12T00:41:21.463Z,94.67
2023-02-12T00:43:38.081Z,94.78
2023-02-12T00:45:55.058Z,95.89
2023-02-12T00:48:11.790Z,95.77
2023-02-12T00:50:30.762Z,94.61
2023-02-12T00:52:48.446Z,95.83
2023-02-12T00:55:05.130Z,95.23
2023-02-12T00:57:21.493Z,94.62
2023-02-12T00:59:37.916Z,94.68
2023-02-12T01:01:54.453Z,95.01
2023-02-12T01:04:10.906Z,95.19
2023-02-12T01:06:27.377Z,95.45
2023-02-12T01:08:44.151Z,94.95
2023-02-12T01:11:00.853Z,95.05
2023-02-12T01:13:17.496Z,95.85
2023-02-12T01:15:34.108Z,95.10
2023-02-12T01:17:50.751Z,95.16
2023-02-12T01:20:07.249Z,95.27
2023-02-12T01:22:23.570Z,95.73
2023-02-12T01:24:39.974Z,95.54
2023-02-12T01:26:56.708Z,95.37
2023-02-12T01:29:13.442Z,95.56
2023-02-12T01:31:29.926Z,95.87
2023-02-12T01:33:46.416Z,95.74
2023-02-12T01:36:02.833Z,96.61
2023-02-12T01:38:19.300Z,95.81
2023-02-12T01:40:35.696Z,96.19
2023-02-12T01:42:52.078Z,94.98
2023-02-12T01:45:08.439Z,96.20
2023-02-12T01:47:24.956Z,95.18
2023-02-12T01:49:41.436Z,94.93
2023-02-12T01:51:58.173Z,95.31
2023-02-12T01:54:14.652Z,94.78
2023-02-12T01:56:31.342Z,95.79
2023-02-12T01:58:48.016Z,95.52
2023-02-12T02:01:04.547Z,96.36
2023-02-12T02:03:21.041Z,95.44
2023-02-12T02:05:37.417Z,95.63
2023-02-12T02:07:55.021Z,95.22
2023-02-12T02:10:11.647Z,95.39
2023-02-12T02:12:27.954Z,95.27
2023-02-12T02:14:44.613Z,95.43
2023-02-12T02:17:01.287Z,95.19
2023-02-12T02:19:17.710Z,95.54
2023-02-12T02:21:34.179Z,95.96
2023-02-12T02:23:50.907Z,96.01
2023-02-12T02:26:07.340Z,95.54
2023-02-12T02:28:23.791Z,96.47
2023-02-12T02:30:40.208Z,95.58
2023-02-12T02:32:56.706Z,95.91
2023-02-12T02:35:13.130Z,95.85
2023-02-12T02:37:29.632Z,94.96
2023-02-12T02:39:46.062Z,96.62
2023-02-12T02:42:02.537Z,95.52
2023-02-12T02:44:19.189Z,95.47
2023-02-12T02:46:35.991Z,96.24
2023-02-12T02:48:52.489Z,95.48
2023-02-12T02:51:09.163Z,95.78
2023-02-12T02:53:25.633Z,95.90
2023-02-12T02:55:42.133Z,95.68
2023-02-12T02:57:58.754Z,95.57
2023-02-12T03:00:15.395Z,95.37
2023-02-12T03:02:31.878Z,95.81
2023-02-12T03:04:48.379Z,96.51
2023-02-12T03:07:04.858Z,95.88
2023-02-12T03:09:21.319Z,96.14
2023-02-12T03:11:38.042Z,95.50
2023-02-12T03:13:54.410Z,96.81
2023-02-12T03:16:11.194Z,96.83
2023-02-12T03:18:27.636Z,96.27
2023-02-12T03:20:44.075Z,96.45
2023-02-12T03:23:00.409Z,95.86
2023-02-12T03:25:16.835Z,96.47
2023-02-12T03:27:33.596Z,95.42
2023-02-12T03:29:49.911Z,95.88
2023-02-12T03:32:06.330Z,96.80
2023-02-12T03:34:22.803Z,95.31
2023-02-12T03:36:39.508Z,95.55
2023-02-12T03:38:55.926Z,96.10
2023-02-12T03:41:12.373Z,95.72
2023-02-12T03:43:28.791Z,95.71
2023-02-12T03:45:45.258Z,96.22
2023-02-12T03:48:02.053Z,96.80
2023-02-12T03:50:18.487Z,95.81
2023-02-12T03:52:34.955Z,95.32
2023-02-12T03:54:51.458Z,95.58
2023-02-12T03:57:08.081Z,95.31
2023-02-12T03:59:24.502Z,95.75
2023-02-12T04:01:41.240Z,95.51
2023-02-12T04:03:58.058Z,95.45
2023-02-12T04:06:14.506Z,95.75
2023-02-12T04:08:30.958Z,94.93
2023-02-12T04:10:47.571Z,94.94
2023-02-12T04:13:04.057Z,94.93
2023-02-12T04:15:20.796Z,95.92
2023-02-12T04:17:37.566Z,95.06
2023-02-12T04:19:55.435Z,95.52
2023-02-12T04:22:11.866Z,95.28
2023-02-12T04:24:28.578Z,95.35
2023-02-12T04:26:45.200Z,95.76
2023-02-12T04:29:01.700Z,95.47
2023-02-12T04:31:18.253Z,95.51
2023-02-12T04:33:34.637Z,95.87
2023-02-12T04:35:51.277Z,96.00
2023-02-12T04:38:07.961Z,96.37
2023-02-12T04:40:24.440Z,95.78
2023-02-12T04:42:40.927Z,95.89
2023-02-12T04:44:57.610Z,95.91
2023-02-12T04:47:14.018Z,96.00
2023-02-12T04:49:30.558Z,96.37
2023-02-12T04:51:47.004Z,96.86
2023-02-12T04:54:03.379Z,95.94
2023-02-12T04:56:20.028Z,96.64
2023-02-12T04:58:36.494Z,95.82
2023-02-12T05:00:53.190Z,95.89
2023-02-12T05:03:09.865Z,96.28
2023-02-12T05:05:26.601Z,96.04
2023-02-12T05:07:43.085Z,95.92
2023-02-12T05:09:59.416Z,96.71
2023-02-12T05:12:18.297Z,96.28
2023-02-12T05:14:34.686Z,96.60
2023-02-12T05:16:51.416Z,97.08
2023-02-12T05:19:07.846Z,97.07
2023-02-12T05:21:24.284Z,96.84
2023-02-12T05:23:40.954Z,96.04
2023-02-12T05:25:57.486Z,96.43
2023-02-12T05:28:14.044Z,96.64
2023-02-12T05:30:30.508Z,96.88
2023-02-12T05:32:46.951Z,97.10
2023-02-12T05:35:03.677Z,96.12
2023-02-12T05:37:20.356Z,97.27
2023-02-12T05:39:36.735Z,96.02
2023-02-12T05:41:53.199Z,97.33
2023-02-12T05:44:09.668Z,96.06
2023-02-12T05:46:26.443Z,96.46
2023-02-12T05:48:42.919Z,96.56
2023-02-12T05:50:59.595Z,97.36
2023-02-12T05:53:16.374Z,96.26
2023-02-12T05:55:32.779Z,97.44
2023-02-12T05:57:49.473Z,96.38
2023-02-12T06:00:06.180Z,96.83
2023-02-12T06:02:22.907Z,96.85
2023-02-12T06:04:39.316Z,96.73
2023-02-12T06:06:55.816Z,95.92
2023-02-12T06:09:12.507Z,97.00
2023-02-12T06:11:28.932Z,95.94
2023-02-12T06:13:45.341Z,97.21
2023-02-12T06:16:01.726Z,96.85
2023-02-12T06:18:18.133Z,97.06
2023-02-12T06:20:34.552Z,96.21
2023-02-12T06:22:50.979Z,96.90
2023-02-12T06:25:07.488Z,96.55
2023-02-12T06:27:24.154Z,95.88
2023-02-12T06:29:40.646Z,96.09
2023-02-12T06:31:57.410Z,95.96
2023-02-12T06:34:14.212Z,96.29
2023-02-12T06:36:30.553Z,96.95
2023-02-12T06:38:47.247Z,96.88
2023-02-12T06:41:03.716Z,96.31
2023-02-12T06:43:20.150Z,96.18
2023-02-12T06:45:36.885Z,96.56
2023-02-12T06:47:53.215Z,96.36
2023-02-12T06:50:09.563Z,96.64
2023-02-12T06:52:26.234Z,97.18
2023-02-12T06:54:42.869Z,96.62
2023-02-12T06:56:59.194Z,96.71
2023-02-12T06:59:15.860Z,97.17
2023-02-12T07:01:32.556Z,97.11
2023-02-12T07:03:49.347Z,97.73
2023-02-12T07:06:06.046Z,97.10
2023-02-12T07:08:22.555Z,96.70
2023-02-12T07:10:38.911Z,96.68
2023-02-12T07:12:55.366Z,96.51
2023-02-12T07:15:11.920Z,97.67
2023-02-12T07:17:28.420Z,96.99
2023-02-12T07:19:44.712Z,97.39
2023-02-12T07:22:01.392Z,97.56
2023-02-12T07:24:17.882Z,97.22
2023-02-12T07:26:34.323Z,97.29
2023-02-12T07:28:50.748Z,97.15
2023-02-12T07:31:07.575Z,97.48
2023-02-12T07:33:24.442Z,96.76
2023-02-12T07:35:40.876Z,97.83
2023-02-12T07:37:57.294Z,96.91
2023-02-12T07:40:13.923Z,96.94
2023-02-12T07:42:30.373Z,97.31
2023-02-12T07:44:46.644Z,96.84
2023-02-12T07:47:03.393Z,96.77
2023-02-12T07:49:19.983Z,97.15
2023-02-12T07:51:36.669Z,97.74
2023-02-12T07:53:53.188Z,97.41
2023-02-12T07:56:09.738Z,97.84
2023-02-12T07:58:26.250Z,97.50
2023-02-12T08:00:42.693Z,96.95
2023-02-12T08:02:59.295Z,96.65
2023-02-12T08:05:15.672Z,97.53
2023-02-12T08:07:32.425Z,96.08
2023-02-12T08:09:48.827Z,97.08
2023-02-12T08:12:05.301Z,96.28
2023-02-12T08:14:23.084Z,96.33
2023-02-12T08:16:39.688Z,96.81
2023-02-12T08:19:02.348Z,96.88
2023-02-12T08:21:24.140Z,96.48
2023-02-12T08:23:40.925Z,96.64
2023-02-12T08:25:57.792Z,96.71
2023-02-12T08:28:14.447Z,95.86
2023-02-12T08:30:31.236Z,95.88
2023-02-12T08:32:47.727Z,96.10
2023-02-12T08:35:04.053Z,96.33
2023-02-12T08:37:20.832Z,96.19
2023-02-12T08:39:37.353Z,95.42
2023-02-12T08:41:54.028Z,95.49
2023-02-12T08:44:10.511Z,94.91
2023-02-12T08:46:27.342Z,95.30
2023-02-12T08:48:43.913Z,94.93
2023-02-12T08:51:00.621Z,94.91
2023-02-12T08:53:17.724Z,94.67
2023-02-12T08:55:34.511Z,94.30
2023-02-12T08:57:52.050Z,94.19
2023-02-12T09:00:08.594Z,94.38
2023-02-12T09:02:25.085Z,94.11
2023-02-12T09:04:41.546Z,93.96
2023-02-12T09:06:58.305Z,94.22
2023-02-12T09:09:14.814Z,94.32
2023-02-12T09:11:31.336Z,94.11
2023-02-12T09:13:47.881Z,93.47
2023-02-12T09:16:04.609Z,93.48
2023-02-12T09:18:21.144Z,93.58
2023-02-12T09:20:37.626Z,93.07
2023-02-12T09:22:54.118Z,93.30
2023-02-12T09:25:10.598Z,92.77
2023-02-12T09:27:28.238Z,92.73
2023-02-12T09:29:46.566Z,92.97
2023-02-12T09:32:03.206Z,92.81
2023-02-12T09:34:20.010Z,92.81
2023-02-12T09:36:36.537Z,92.78
2023-02-12T09:38:53.374Z,92.75
2023-02-12T09:41:10.154Z,92.76
2023-02-12T09:43:26.946Z,92.82
2023-02-12T09:45:43.484Z,92.95
2023-02-12T09:47:59.839Z,93.05
2023-02-12T09:50:16.344Z,92.87
2023-02-12T09:52:33.111Z,92.65
2023-02-12T09:54:49.951Z,92.66
2023-02-12T09:57:06.680Z,92.69
2023-02-12T09:59:23.084Z,92.44
2023-02-12T10:01:39.923Z,92.53
2023-02-12T10:03:56.313Z,92.46
2023-02-12T10:06:12.828Z,92.33
2023-02-12T10:08:29.697Z,92.12
2023-02-12T10:10:46.065Z,92.90
2023-02-12T10:13:02.458Z,92.68
2023-02-12T10:15:19.144Z,92.08
2023-02-12T10:17:35.563Z,91.90
2023-02-12T10:19:51.993Z,92.25
2023-02-12T10:22:08.628Z,92.40
2023-02-12T10:24:25.155Z,91.25
2023-02-12T10:26:41.829Z,91.31
2023-02-12T10:28:58.597Z,91.64
2023-02-12T10:31:15.065Z,91.40
2023-02-12T10:33:31.595Z,91.45
2023-02-12T10:35:48.361Z,91.73
2023-02-12T10:38:04.775Z,91.04
2023-02-12T10:40:21.459Z,90.88
2023-02-12T10:42:38.142Z,91.28
2023-02-12T10:44:54.921Z,90.93
2023-02-12T10:47:11.396Z,90.87
2023-02-12T10:49:28.181Z,91.03
2023-02-12T10:51:44.714Z,90.91
2023-02-12T10:54:01.150Z,90.96
2023-02-12T10:56:17.873Z,90.86
2023-02-12T10:58:34.417Z,91.06
2023-02-12T11:00:50.733Z,91.20
2023-02-12T11:03:07.476Z,90.65
2023-02-12T11:05:23.930Z,90.93
2023-02-12T11:07:40.198Z,90.98
2023-02-12T11:09:56.902Z,90.53
2023-02-12T11:12:13.430Z,90.29
2023-02-12T11:14:29.837Z,90.25
2023-02-12T11:16:46.527Z,90.53
2023-02-12T11:19:03.322Z,90.49
2023-02-12T11:21:20.081Z,91.18
2023-02-12T11:23:36.624Z,91.40
2023-02-12T11:25:53.132Z,91.15
2023-02-12T11:28:09.970Z,90.62
2023-02-12T11:30:26.589Z,90.10
2023-02-12T11:32:43.332Z,90.52
2023-02-12T11:35:00.008Z,90.39
2023-02-12T11:37:16.465Z,89.78
2023-02-12T11:39:33.173Z,90.79
2023-02-12T11:41:49.646Z,90.09
2023-02-12T11:44:06.143Z,90.49
2023-02-12T11:46:22.909Z,90.00
2023-02-12T11:48:39.423Z,89.86
2023-02-12T11:50:56.183Z,89.77
2023-02-12T11:53:12.515Z,88.01
2023-02-12T11:55:30.561Z,88.63
2023-02-12T11:57:49.040Z,89.19
2023-02-12T12:00:05.691Z,88.45
2023-02-12T12:02:22.305Z,88.85
2023-02-12T12:04:38.947Z,88.89
2023-02-12T12:06:55.612Z,88.17
2023-02-12T12:09:12.123Z,88.75
2023-02-12T12:11:28.472Z,88.28
2023-02-12T12:13:44.912Z,88.36
2023-02-12T12:16:01.304Z,88.20
2023-02-12T12:18:17.933Z,87.31
2023-02-12T12:20:34.563Z,87.47
2023-02-12T12:22:51.358Z,85.73
2023-02-12T12:25:08.081Z,86.54
2023-02-12T12:27:24.575Z,87.07
2023-02-12T12:29:41.029Z,87.22
2023-02-12T12:31:57.751Z,87.98
2023-02-12T12:34:14.485Z,87.63
2023-02-12T12:36:30.758Z,86.12
2023-02-12T12:38:47.161Z,86.90
2023-02-12T12:41:03.797Z,86.93
2023-02-12T12:43:20.173Z,86.20
2023-02-12T12:45:36.924Z,86.81
2023-02-12T12:47:53.372Z,86.97
2023-02-12T12:50:09.834Z,86.91
2023-02-12T12:52:26.534Z,87.10
2023-02-12T12:54:42.984Z,86.95
2023-02-12T12:56:59.722Z,86.10
2023-02-12T12:59:16.462Z,86.09
2023-02-12T13:01:33.022Z,86.37
2023-02-12T13:03:49.789Z,85.36
2023-02-12T13:06:06.522Z,86.14
2023-02-12T13:08:23.323Z,85.14
2023-02-12T13:10:39.912Z,86.22
2023-02-12T13:12:56.322Z,85.14
2023-02-12T13:15:13.045Z,85.34
2023-02-12T13:17:29.476Z,84.97
2023-02-12T13:19:45.921Z,86.14
2023-02-12T13:22:02.332Z,86.49
2023-02-12T13:24:18.764Z,85.26
2023-02-12T13:26:35.417Z,84.82
2023-02-12T13:28:51.758Z,84.04
2023-02-12T13:31:30.018Z,84.15
2023-02-12T13:33:44.621Z,83.00
2023-02-12T13:36:01.085Z,83.86
2023-02-12T13:38:17.435Z,85.01
2023-02-12T13:40:33.902Z,84.22
2023-02-12T13:42:50.543Z,85.48
2023-02-12T13:45:06.965Z,85.59
2023-02-12T13:47:23.633Z,83.46
2023-02-12T13:49:40.082Z,85.10
2023-02-12T13:51:56.764Z,85.36
2023-02-12T13:54:13.228Z,85.36
2023-02-12T13:56:29.994Z,85.55
2023-02-12T13:58:46.603Z,85.75
2023-02-12T14:01:03.401Z,84.53
2023-02-12T14:03:19.851Z,84.93
2023-02-12T14:05:36.650Z,83.69
2023-02-12T14:07:53.395Z,85.10
2023-02-12T14:10:09.833Z,85.50
2023-02-12T14:12:26.313Z,85.27
2023-02-12T14:14:43.049Z,85.54
2023-02-12T14:16:59.546Z,85.80
2023-02-12T14:19:15.962Z,84.52
2023-02-12T14:21:32.486Z,86.00
2023-02-12T14:23:49.218Z,85.69
2023-02-12T14:26:05.777Z,85.34
2023-02-12T14:28:22.160Z,84.57
2023-02-12T14:30:40.301Z,86.04
2023-02-12T14:32:56.905Z,84.99
2023-02-12T14:35:13.422Z,85.35
2023-02-12T14:37:29.921Z,84.19
2023-02-12T14:39:46.370Z,84.23
2023-02-12T14:42:02.805Z,84.45
2023-02-12T14:44:19.126Z,85.66
2023-02-12T14:46:35.595Z,84.71
2023-02-12T14:48:52.098Z,85.14
2023-02-12T14:51:08.789Z,85.22
2023-02-12T14:53:25.275Z,86.03
2023-02-12T14:55:41.774Z,86.41
2023-02-12T14:57:58.515Z,85.66
2023-02-12T15:00:16.270Z,85.79
2023-02-12T15:02:32.707Z,85.44
2023-02-12T15:04:49.113Z,85.41
2023-02-12T15:07:05.483Z,86.58
2023-02-12T15:09:21.949Z,86.52
2023-02-12T15:11:38.376Z,85.76
2023-02-12T15:13:56.226Z,85.61
2023-02-12T15:16:12.724Z,86.13
2023-02-12T15:18:29.194Z,85.78
2023-02-12T15:20:45.649Z,86.65
2023-02-12T15:23:02.375Z,86.09
2023-02-12T15:25:19.011Z,86.03
2023-02-12T15:27:35.530Z,85.90
2023-02-12T15:29:52.037Z,85.66
2023-02-12T15:32:08.543Z,85.66
2023-02-12T15:34:24.990Z,85.56
2023-02-12T15:36:41.726Z,85.59
2023-02-12T15:38:58.093Z,86.65
2023-02-12T15:41:14.486Z,85.68
2023-02-12T15:43:31.169Z,86.12
2023-02-12T15:45:47.865Z,87.25
2023-02-12T15:48:04.242Z,86.10
2023-02-12T15:50:20.942Z,87.12
2023-02-12T15:52:37.387Z,87.26
2023-02-12T15:54:53.885Z,86.38
2023-02-12T15:57:10.355Z,87.54
2023-02-12T15:59:29.048Z,87.39
2023-02-12T16:01:45.793Z,87.84
2023-02-12T16:04:02.615Z,86.96
2023-02-12T16:06:19.250Z,86.86
2023-02-12T16:08:35.788Z,87.21
2023-02-12T16:10:52.509Z,87.72
2023-02-12T16:13:09.278Z,86.99
2023-02-12T16:15:25.608Z,87.24
2023-02-12T16:17:42.091Z,88.04
2023-02-12T16:19:58.735Z,88.01
2023-02-12T16:22:15.332Z,88.15
2023-02-12T16:24:31.704Z,86.88
2023-02-12T16:26:48.344Z,88.00
2023-02-12T16:29:04.755Z,88.45
2023-02-12T16:31:21.341Z,88.60
2023-02-12T16:33:37.851Z,87.79
2023-02-12T16:35:54.814Z,88.17
2023-02-12T16:38:11.681Z,87.91
2023-02-12T16:40:28.251Z,89.00
2023-02-12T16:42:44.977Z,88.95
2023-02-12T16:45:01.730Z,89.18
2023-02-12T16:47:18.391Z,89.51
2023-02-12T16:49:34.777Z,88.48
2023-02-12T16:51:51.520Z,90.34
2023-02-12T16:54:08.029Z,90.70
2023-02-12T16:56:24.476Z,89.96
2023-02-12T16:58:40.974Z,90.27
2023-02-12T17:00:57.442Z,90.59
2023-02-12T17:03:14.253Z,90.40
2023-02-12T17:05:30.759Z,91.24
2023-02-12T17:07:47.237Z,90.88
2023-02-12T17:10:03.905Z,90.92
2023-02-12T17:12:20.375Z,91.19
2023-02-12T17:14:36.794Z,92.20
2023-02-12T17:16:53.232Z,91.46
2023-02-12T17:19:10.014Z,91.23
2023-02-12T17:21:26.710Z,91.40
2023-02-12T17:23:43.533Z,91.61
2023-02-12T17:26:00.356Z,91.65
2023-02-12T17:28:16.858Z,91.65
2023-02-12T17:30:33.255Z,92.03
2023-02-12T17:32:51.341Z,92.59
2023-02-12T17:35:07.989Z,92.36
2023-02-12T17:37:24.346Z,92.80
2023-02-12T17:39:41.096Z,92.45
2023-02-12T17:41:57.827Z,92.53
2023-02-12T17:44:14.376Z,92.67
2023-02-12T17:46:31.039Z,92.79
2023-02-12T17:48:48.233Z,92.98
2023-02-12T17:51:05.182Z,92.81
2023-02-12T17:53:21.948Z,93.23
2023-02-12T17:55:38.420Z,92.67
2023-02-12T17:57:54.943Z,93.16
2023-02-12T18:00:11.440Z,93.22
2023-02-12T18:02:28.129Z,92.86
2023-02-12T18:04:44.732Z,92.65
2023-02-12T18:07:01.137Z,93.07
2023-02-12T18:09:18.552Z,93.41
2023-02-12T18:11:35.315Z,93.26
2023-02-12T18:13:51.742Z,92.94
2023-02-12T18:16:09.148Z,93.49
2023-02-12T18:18:25.889Z,93.41
2023-02-12T18:20:42.317Z,93.55
2023-02-12T18:22:58.781Z,93.79
2023-02-12T18:25:16.812Z,94.08
2023-02-12T18:27:34.190Z,93.98
2023-02-12T18:29:50.742Z,94.04
2023-02-12T18:32:07.230Z,94.40
2023-02-12T18:34:23.721Z,94.30
2023-02-12T18:36:40.465Z,93.91
2023-02-12T18:38:56.905Z,93.88
2023-02-12T18:41:13.712Z,94.07
2023-02-12T18:43:30.251Z,94.33
2023-02-12T18:45:46.605Z,94.04
2023-02-12T18:48:03.342Z,94.05
2023-02-12T18:50:19.855Z,94.29
2023-02-12T18:52:36.533Z,94.22
2023-02-12T18:54:53.285Z,94.28
2023-02-12T18:57:09.742Z,94.46
2023-02-12T18:59:27.404Z,94.35
2023-02-12T19:01:44.314Z,94.53
2023-02-12T19:04:01.124Z,94.62
2023-02-12T19:06:17.709Z,94.50
2023-02-12T19:08:34.449Z,93.87
2023-02-12T19:10:50.938Z,94.04
2023-02-12T19:13:07.579Z,94.03
2023-02-12T19:15:24.164Z,94.07
2023-02-12T19:17:40.924Z,94.64
2023-02-12T19:19:57.443Z,94.50
2023-02-12T19:22:13.788Z,94.49
2023-02-12T19:24:45.572Z,94.86
2023-02-12T19:27:03.136Z,94.58
2023-02-12T19:29:19.602Z,94.49
2023-02-12T19:31:36.227Z,94.57
2023-02-12T19:33:52.777Z,94.80
2023-02-12T19:36:09.104Z,94.57
2023-02-12T19:38:25.600Z,94.61
2023-02-12T19:40:42.071Z,94.22
2023-02-12T19:42:58.437Z,94.95
2023-02-12T19:45:14.746Z,95.33
2023-02-12T19:47:31.480Z,95.06
2023-02-12T19:49:48.022Z,94.45
2023-02-12T19:52:04.821Z,94.77
2023-02-12T19:54:21.166Z,94.84
2023-02-12T19:56:37.880Z,94.87
2023-02-12T19:58:54.395Z,94.87
2023-02-12T20:01:10.817Z,95.22
2023-02-12T20:03:27.601Z,95.49
2023-02-12T20:05:44.112Z,94.92
2023-02-12T20:08:00.946Z,94.71
2023-02-12T20:10:18.445Z,95.00
2023-02-12T20:12:34.966Z,94.86
2023-02-12T20:14:51.304Z,94.76
2023-02-12T20:17:08.003Z,94.93
2023-02-12T20:19:24.415Z,95.22
2023-02-12T20:21:41.133Z,95.33
2023-02-12T20:23:57.641Z,95.36
2023-02-12T20:26:14.072Z,95.08
2023-02-12T20:28:30.671Z,95.20
2023-02-12T20:30:47.278Z,95.28
2023-02-12T20:33:03.871Z,94.82
2023-02-12T20:35:20.336Z,95.02
2023-02-12T20:37:36.706Z,94.69
2023-02-12T20:39:52.993Z,95.13
2023-02-12T20:42:09.638Z,95.43
2023-02-12T20:44:26.318Z,95.24
2023-02-12T20:46:42.804Z,95.10
2023-02-12T20:48:59.532Z,95.23
2023-02-12T20:51:15.932Z,95.40
2023-02-12T20:53:32.604Z,95.32
2023-02-12T20:55:48.980Z,95.40
2023-02-12T20:58:05.695Z,95.63
2023-02-12T21:00:22.327Z,95.55
2023-02-12T21:02:39.090Z,95.61
2023-02-12T21:04:55.651Z,96.07
2023-02-12T21:07:12.041Z,95.47
2023-02-12T21:09:28.342Z,95.44
2023-02-12T21:11:45.075Z,95.77
2023-02-12T21:14:20.248Z,95.62
2023-02-12T21:16:37.692Z,95.38
2023-02-12T21:18:54.076Z,95.57
2023-02-12T21:21:10.761Z,95.55
2023-02-12T21:23:27.528Z,95.39
2023-02-12T21:25:43.969Z,95.68
2023-02-12T21:28:00.423Z,95.56
2023-02-12T21:30:16.801Z,95.53
2023-02-12T21:32:33.403Z,95.61
2023-02-12T21:34:49.965Z,95.98
2023-02-12T21:37:06.697Z,96.00
2023-02-12T21:39:23.182Z,96.06
2023-02-12T21:41:39.995Z,96.31
2023-02-12T21:43:56.459Z,96.55
2023-02-12T21:46:13.045Z,96.81
2023-02-12T21:48:29.457Z,96.26
2023-02-12T21:50:46.005Z,96.52
2023-02-12T21:53:02.674Z,96.25
2023-02-12T21:55:19.311Z,96.52
2023-02-12T21:57:36.023Z,96.82
2023-02-12T21:59:52.488Z,96.36
2023-02-12T22:02:09.180Z,96.45
2023-02-12T22:04:25.718Z,96.52
2023-02-12T22:06:42.450Z,96.33
2023-02-12T22:08:58.941Z,96.71
2023-02-12T22:11:15.686Z,96.97
2023-02-12T22:13:32.428Z,96.28
2023-02-12T22:15:49.031Z,96.74
2023-02-12T22:18:05.517Z,96.69
2023-02-12T22:20:21.983Z,96.36
2023-02-12T22:22:38.771Z,96.44
2023-02-12T22:24:55.495Z,96.39
2023-02-12T22:27:12.000Z,96.83
2023-02-12T22:29:28.917Z,96.54
2023-02-12T22:31:45.503Z,96.56
2023-02-12T22:34:01.997Z,96.79
2023-02-12T22:36:18.768Z,96.62
2023-02-12T22:38:35.510Z,96.67
2023-02-12T22:40:52.408Z,96.28
2023-02-12T22:43:08.810Z,96.62
2023-02-12T22:45:25.169Z,97.01
2023-02-12T22:47:41.887Z,96.69
2023-02-12T22:49:58.358Z,97.16
2023-02-12T22:52:15.024Z,97.10
2023-02-12T22:54:31.529Z,96.80
2023-02-12T22:56:48.160Z,96.73
2023-02-12T22:59:04.596Z,97.14
2023-02-12T23:01:21.057Z,96.66
2023-02-12T23:03:37.679Z,97.17
2023-02-12T23:05:54.324Z,96.94
2023-02-12T23:08:10.783Z,97.08
2023-02-12T23:10:27.488Z,97.15
2023-02-12T23:12:43.933Z,96.49
2023-02-12T23:15:00.378Z,96.87
2023-02-12T23:17:16.723Z,97.07
2023-02-12T23:19:33.161Z,96.84
2023-02-12T23:21:49.718Z,96.90
2023-02-12T23:24:06.188Z,96.89
2023-02-12T23:26:22.678Z,96.65
2023-02-12T23:28:39.112Z,96.70
2023-02-12T23:30:57.051Z,96.64
2023-02-12T23:33:13.978Z,96.28
2023-02-12T23:35:30.404Z,96.53
2023-02-12T23:37:46.807Z,96.02
2023-02-12T23:40:03.551Z,96.15
2023-02-12T23:42:20.277Z,96.37
2023-02-12T23:44:36.730Z,96.42
2023-02-12T23:46:53.136Z,96.49
2023-02-12T23:49:09.496Z,96.08
2023-02-12T23:51:25.838Z,96.41
2023-02-12T23:53:42.235Z,96.08
2023-02-12T23:55:58.677Z,96.68
2023-02-12T23:58:15.375Z,96.15
